Time;durP1;ratioP1;P1;durP2;ratioP2;P2;SDS_P1;SDS_P2;PMS_P1;PMS_P2;Temp;Humidity;BMP_temperature;BMP_pressure;BME280_temperature;BME280_humidity;BME280_pressure;Samples;Min_cycle;Max_cycle;Signal;HPM_P1;HPM_P2
2021/08/31 05:00:30;;;;;;;10.18;5.60;;;16.30;99.90;;;;;;5983694;23;20110;31
2021/08/31 05:02:57;;;;;;;11.45;5.88;;;16.40;99.90;;;;;;4860793;29;20049;-89
2021/08/31 05:05:23;;;;;;;8.93;5.25;;;16.40;99.90;;;;;;4845147;29;20026;-89
2021/08/31 05:07:51;;;;;;;11.30;5.63;;;16.40;99.90;;;;;;4840858;29;20029;-90
2021/08/31 05:10:18;;;;;;;10.88;5.70;;;16.50;99.90;;;;;;4846882;29;20505;-89
2021/08/31 05:12:43;;;;;;;9.98;5.68;;;16.50;99.90;;;;;;4846967;29;20056;-89
2021/08/31 05:15:15;;;;;;;11.02;5.97;;;16.30;99.90;;;;;;4846625;29;20026;-83
2021/08/31 05:17:41;;;;;;;9.63;6.10;;;16.20;99.90;;;;;;4862390;29;20490;-85
2021/08/31 05:20:08;;;;;;;9.18;5.68;;;16.30;99.90;;;;;;4830708;29;20030;-85
2021/08/31 05:22:34;;;;;;;12.10;5.60;;;16.50;99.90;;;;;;4846003;29;20553;-85
2021/08/31 05:25:01;;;;;;;12.02;6.10;;;16.30;99.90;;;;;;4830333;29;20069;-85
2021/08/31 05:27:28;;;;;;;9.20;5.30;;;16.50;99.90;;;;;;4830976;29;20086;-85
2021/08/31 05:29:54;;;;;;;11.00;6.20;;;16.40;99.90;;;;;;4830860;29;20486;-84
2021/08/31 05:32:20;;;;;;;11.27;5.93;;;16.50;99.90;;;;;;4845759;29;20086;-89
2021/08/31 05:34:46;;;;;;;11.50;5.72;;;16.70;99.90;;;;;;4845611;29;20037;-84
2021/08/31 05:37:12;;;;;;;10.75;6.55;;;16.80;99.90;;;;;;4845883;29;20028;-83
2021/08/31 05:39:38;;;;;;;9.82;5.80;;;16.90;99.90;;;;;;4830926;29;20069;-83
2021/08/31 05:42:06;;;;;;;10.13;5.20;;;16.80;99.90;;;;;;4845680;29;20469;-83
2021/08/31 05:44:33;;;;;;;10.75;5.60;;;17.10;99.90;;;;;;4845360;29;20065;-84
2021/08/31 05:47:00;;;;;;;9.05;4.93;;;17.20;99.90;;;;;;4845480;29;20049;-84
2021/08/31 05:49:26;;;;;;;9.93;5.70;;;17.30;99.90;;;;;;4845614;29;20044;-84
2021/08/31 05:51:55;;;;;;;9.73;5.22;;;17.30;99.90;;;;;;4861695;29;20069;-85
2021/08/31 05:54:24;;;;;;;10.07;5.35;;;17.40;99.90;;;;;;4845370;29;20089;-84
2021/08/31 05:56:49;;;;;;;9.18;4.75;;;17.50;99.90;;;;;;4861886;29;20065;-85
2021/08/31 05:59:18;;;;;;;9.68;5.25;;;17.60;99.90;;;;;;4829976;29;20477;-84
2021/08/31 06:01:46;;;;;;;8.85;4.90;;;17.70;99.90;;;;;;4871082;29;20049;-82
2021/08/31 06:04:12;;;;;;;9.40;5.20;;;17.90;99.90;;;;;;4848383;29;20123;-83
2021/08/31 06:06:38;;;;;;;10.35;5.40;;;17.80;99.90;;;;;;4880011;29;20121;-84
2021/08/31 06:09:07;;;;;;;9.85;5.15;;;17.70;99.90;;;;;;4879766;29;20033;-84
2021/08/31 06:11:40;;;;;;;9.18;5.10;;;17.90;99.90;;;;;;4863994;29;20029;-85
2021/08/31 06:14:07;;;;;;;10.27;5.05;;;18.00;99.90;;;;;;4863433;29;20033;-85
2021/08/31 06:16:34;;;;;;;8.73;5.10;;;18.50;99.90;;;;;;4847873;29;20374;-85
2021/08/31 06:19:00;;;;;;;10.48;5.47;;;18.00;99.90;;;;;;4862891;29;20036;-86
2021/08/31 06:21:26;;;;;;;11.15;5.60;;;19.50;99.90;;;;;;4879518;29;20032;-87
2021/08/31 06:23:52;;;;;;;10.23;5.72;;;18.10;99.90;;;;;;4880180;29;20477;-87
2021/08/31 06:26:17;;;;;;;10.35;5.57;;;19.90;99.90;;;;;;4863419;29;20053;-87
2021/08/31 06:28:43;;;;;;;10.82;5.35;;;18.00;99.90;;;;;;4847879;29;20045;-87
2021/08/31 06:31:10;;;;;;;9.88;5.30;;;18.70;99.90;;;;;;4848564;29;20042;-87
2021/08/31 06:33:36;;;;;;;8.98;4.97;;;18.00;99.90;;;;;;4863309;29;20545;-87
2021/08/31 06:36:05;;;;;;;10.30;5.60;;;18.00;99.90;;;;;;4863313;29;20049;-87
2021/08/31 06:38:30;;;;;;;10.20;5.40;;;18.10;99.90;;;;;;4863164;29;20025;-87
2021/08/31 06:40:57;;;;;;;10.38;5.47;;;18.10;99.90;;;;;;4848082;29;20061;-87
2021/08/31 06:43:22;;;;;;;8.73;5.10;;;18.20;99.90;;;;;;4863220;29;20034;-87
2021/08/31 06:45:48;;;;;;;11.00;5.97;;;18.20;99.90;;;;;;4881757;29;20036;-87
2021/08/31 06:48:14;;;;;;;9.77;5.32;;;18.20;99.70;;;;;;4848405;29;20052;-87
2021/08/31 06:50:40;;;;;;;9.90;5.22;;;18.10;99.80;;;;;;4863366;29;20097;-87
2021/08/31 06:53:05;;;;;;;9.68;5.63;;;18.30;99.90;;;;;;4863408;29;20036;-87
2021/08/31 06:55:33;;;;;;;13.40;5.43;;;18.30;99.80;;;;;;4863597;29;20041;-87
2021/08/31 06:58:00;;;;;;;9.38;5.10;;;19.60;99.90;;;;;;4863187;29;20036;-87
2021/08/31 07:00:25;;;;;;;9.55;5.20;;;18.40;99.70;;;;;;4863302;29;20391;-87
2021/08/31 07:02:51;;;;;;;9.35;5.10;;;18.40;99.90;;;;;;4859991;29;20057;-87
2021/08/31 07:05:16;;;;;;;8.40;4.80;;;18.60;99.90;;;;;;4844503;29;20034;-87
2021/08/31 07:07:42;;;;;;;8.65;5.03;;;18.60;99.80;;;;;;4844892;29;20030;-88
2021/08/31 07:10:08;;;;;;;10.13;5.47;;;17.90;99.40;;;;;;4844841;29;20140;-86
2021/08/31 07:12:37;;;;;;;9.95;4.82;;;18.70;99.90;;;;;;4844556;29;20029;-85
2021/08/31 07:15:03;;;;;;;8.40;4.80;;;18.30;99.60;;;;;;4845037;29;20045;-86
2021/08/31 07:17:32;;;;;;;9.07;4.90;;;19.00;99.90;;;;;;4862094;29;20041;-85
2021/08/31 07:19:57;;;;;;;9.40;4.93;;;18.90;99.70;;;;;;4845531;29;20060;-89
2021/08/31 07:22:23;;;;;;;9.70;4.82;;;19.00;99.50;;;;;;4834091;29;20062;-90
2021/08/31 07:24:49;;;;;;;9.05;4.75;;;19.10;99.40;;;;;;4834284;29;20482;-92
2021/08/31 07:27:18;;;;;;;9.38;5.05;;;20.40;99.90;;;;;;4830306;29;20038;-90
2021/08/31 07:29:44;;;;;;;8.75;4.60;;;19.20;99.80;;;;;;4838644;29;20027;-92
2021/08/31 07:32:09;;;;;;;8.48;4.70;;;19.20;99.00;;;;;;4850114;29;20033;-88
2021/08/31 07:34:38;;;;;;;9.43;5.10;;;19.30;99.10;;;;;;4829109;29;20106;-88
2021/08/31 07:37:05;;;;;;;10.00;4.70;;;19.40;98.80;;;;;;4856562;29;20061;-87
2021/08/31 07:39:31;;;;;;;11.93;5.45;;;19.50;98.80;;;;;;4832458;29;20060;-87
2021/08/31 07:41:57;;;;;;;8.40;4.78;;;19.60;98.50;;;;;;4864205;29;20382;-87
2021/08/31 07:44:22;;;;;;;10.35;4.30;;;19.60;98.30;;;;;;4847532;29;20034;-88
2021/08/31 07:46:51;;;;;;;9.38;4.90;;;19.80;98.60;;;;;;4832308;29;20034;-86
2021/08/31 07:49:18;;;;;;;8.77;4.15;;;19.90;98.10;;;;;;4849784;29;20112;-85
2021/08/31 07:51:44;;;;;;;10.48;5.03;;;21.60;99.10;;;;;;4874977;29;20021;-89
2021/08/31 07:54:11;;;;;;;8.25;4.03;;;21.70;98.70;;;;;;4867436;29;20030;-91
2021/08/31 07:56:37;;;;;;;10.18;4.50;;;20.00;97.80;;;;;;4856868;29;20056;-89
2021/08/31 07:59:04;;;;;;;11.45;4.82;;;20.00;97.70;;;;;;4853611;29;20124;-91
2021/08/31 08:01:30;;;;;;;10.00;4.35;;;20.10;98.00;;;;;;4861958;29;20128;-84
2021/08/31 08:03:57;;;;;;;8.52;4.13;;;21.10;98.70;;;;;;4869652;29;20355;-87
2021/08/31 08:06:23;;;;;;;8.95;4.22;;;21.70;98.80;;;;;;4850045;29;20550;-85
2021/08/31 08:08:50;;;;;;;10.10;4.30;;;21.00;98.70;;;;;;4863793;29;20045;-86
2021/08/31 08:11:15;;;;;;;8.85;4.15;;;20.80;98.10;;;;;;4864253;29;20132;-86
2021/08/31 08:13:41;;;;;;;7.90;3.90;;;20.80;98.10;;;;;;4846908;29;20033;-86
2021/08/31 08:16:08;;;;;;;8.20;3.53;;;21.00;98.60;;;;;;4846467;29;20486;-85
2021/08/31 08:18:34;;;;;;;8.10;3.95;;;21.10;98.10;;;;;;4862472;29;20029;-84
2021/08/31 08:21:02;;;;;;;7.70;3.80;;;21.50;99.40;;;;;;4847217;29;20044;-85
2021/08/31 08:23:28;;;;;;;7.40;3.50;;;21.70;99.90;;;;;;4831881;29;20145;-85
2021/08/31 08:25:54;;;;;;;8.35;3.97;;;22.20;99.90;;;;;;4862027;29;20486;-84
2021/08/31 08:28:22;;;;;;;9.13;4.05;;;22.60;99.90;;;;;;4862868;29;20036;-85
2021/08/31 08:30:49;;;;;;;7.53;3.53;;;22.80;99.90;;;;;;4846669;29;20474;-85
2021/08/31 08:33:15;;;;;;;7.80;3.90;;;22.80;99.00;;;;;;4863012;29;20029;-85
2021/08/31 08:35:43;;;;;;;7.97;3.70;;;22.80;98.40;;;;;;4846384;29;20045;-85
2021/08/31 08:38:09;;;;;;;10.57;4.00;;;22.40;98.30;;;;;;4827572;29;20420;-85
2021/08/31 08:40:35;;;;;;;8.70;3.42;;;22.70;97.30;;;;;;4828001;29;20034;-85
2021/08/31 08:43:05;;;;;;;7.38;3.72;;;23.10;97.10;;;;;;4828197;29;20387;-85
2021/08/31 08:45:34;;;;;;;7.45;3.47;;;23.10;96.30;;;;;;4828129;29;20038;-85
2021/08/31 08:48:00;;;;;;;8.57;3.95;;;23.20;96.30;;;;;;4828234;29;20026;-87
2021/08/31 08:50:28;;;;;;;8.10;3.60;;;23.40;96.50;;;;;;4862254;29;20026;-87
2021/08/31 08:52:53;;;;;;;7.47;3.60;;;23.60;97.10;;;;;;4869358;29;20033;-86
2021/08/31 08:55:25;;;;;;;7.80;3.55;;;24.80;97.10;;;;;;4865849;29;20063;-86
2021/08/31 08:57:51;;;;;;;7.45;3.28;;;24.10;96.70;;;;;;4861254;29;20030;-84
2021/08/31 09:00:18;;;;;;;8.18;3.50;;;24.00;96.50;;;;;;4861248;29;20037;-84
2021/08/31 09:02:44;;;;;;;7.90;3.30;;;24.10;97.40;;;;;;4878298;29;20045;-85
2021/08/31 09:05:14;;;;;;;6.35;3.25;;;24.30;96.60;;;;;;4881093;29;20489;-86
2021/08/31 09:07:41;;;;;;;6.47;3.40;;;24.60;96.50;;;;;;4864401;29;20039;-85
2021/08/31 09:10:20;;;;;;;8.98;3.33;;;24.80;96.30;;;;;;4880790;29;20025;-86
2021/08/31 09:12:53;;;;;;;7.38;3.45;;;24.40;95.40;;;;;;4864189;29;20029;-86
2021/08/31 09:15:25;;;;;;;7.07;3.35;;;24.80;95.40;;;;;;4875980;29;20037;-86
2021/08/31 09:18:15;;;;;;;8.15;3.50;;;24.30;95.20;;;;;;4880275;29;20032;-85
2021/08/31 09:20:47;;;;;;;8.80;3.67;;;24.00;94.70;;;;;;4860849;29;20070;-85
2021/08/31 09:23:22;;;;;;;7.38;3.22;;;24.00;95.60;;;;;;4877926;29;20098;-86
2021/08/31 09:25:54;;;;;;;9.15;3.40;;;24.60;95.50;;;;;;4880922;29;20040;-86
2021/08/31 09:28:29;;;;;;;8.00;3.50;;;24.40;95.80;;;;;;4880632;29;20029;-88
2021/08/31 09:31:12;;;;;;;6.50;3.03;;;25.00;95.90;;;;;;4861558;29;20025;-87
2021/08/31 09:33:46;;;;;;;9.45;3.55;;;24.90;96.00;;;;;;4872647;29;20021;-89
2021/08/31 09:36:18;;;;;;;7.78;3.40;;;25.50;97.10;;;;;;4876969;29;20386;-88
2021/08/31 09:38:55;;;;;;;7.28;3.47;;;25.50;95.70;;;;;;4868489;29;20036;-86
2021/08/31 09:41:25;;;;;;;5.55;2.90;;;26.00;95.80;;;;;;4862115;29;20086;-85
2021/08/31 09:43:52;;;;;;;9.63;3.30;;;26.70;95.90;;;;;;4861728;29;20021;-89
2021/08/31 09:46:18;;;;;;;7.10;3.30;;;25.90;95.10;;;;;;4848729;29;20034;-90
2021/08/31 09:48:46;;;;;;;7.15;3.33;;;25.80;95.10;;;;;;4849079;29;20478;-90
2021/08/31 09:51:14;;;;;;;8.32;3.35;;;26.20;96.00;;;;;;4849095;29;20041;-86
2021/08/31 09:53:42;;;;;;;6.78;3.00;;;26.20;94.70;;;;;;4864644;29;20073;-87
2021/08/31 09:56:10;;;;;;;6.65;3.22;;;26.30;94.50;;;;;;4878972;29;20486;-85
2021/08/31 09:58:58;;;;;;;8.02;3.30;;;26.40;94.10;;;;;;4880776;29;20145;-87
2021/08/31 10:01:24;;;;;;;7.47;3.20;;;25.90;94.10;;;;;;4875853;29;20048;-85
2021/08/31 10:03:50;;;;;;;6.85;3.17;;;25.60;94.10;;;;;;4871504;29;20033;-85
2021/08/31 10:06:16;;;;;;;8.85;3.67;;;25.20;94.10;;;;;;4852198;29;20033;-86
2021/08/31 10:08:45;;;;;;;8.82;3.40;;;24.80;94.20;;;;;;4854848;29;20048;-85
2021/08/31 10:11:12;;;;;;;8.00;3.60;;;24.80;94.70;;;;;;4852214;29;20029;-85
2021/08/31 10:13:40;;;;;;;7.18;3.50;;;24.20;94.50;;;;;;4861937;29;20134;-86
2021/08/31 10:16:09;;;;;;;8.20;3.47;;;24.60;95.00;;;;;;4864043;29;20486;-86
2021/08/31 10:18:35;;;;;;;8.80;3.55;;;24.50;95.50;;;;;;4830738;29;20033;-86
2021/08/31 10:21:06;;;;;;;7.43;3.50;;;24.60;95.90;;;;;;4815240;29;20112;-86
2021/08/31 10:23:37;;;;;;;7.32;3.47;;;25.00;96.10;;;;;;4849166;29;20043;-87
2021/08/31 10:26:33;;;;;;;6.72;3.10;;;25.40;96.10;;;;;;4860122;29;20030;-89
2021/08/31 10:29:14;;;;;;;8.20;3.28;;;25.20;94.70;;;;;;4859468;29;20022;-86
2021/08/31 10:31:57;;;;;;;5.80;2.78;;;25.70;95.00;;;;;;4877495;29;20029;-87
2021/08/31 10:34:32;;;;;;;7.00;3.20;;;25.80;94.90;;;;;;4883261;29;20028;-88
2021/08/31 10:37:09;;;;;;;7.28;3.55;;;26.30;95.10;;;;;;4889354;29;20037;-87
2021/08/31 10:39:47;;;;;;;6.55;2.85;;;25.60;94.00;;;;;;4863201;29;20024;-83
2021/08/31 10:42:35;;;;;;;8.40;3.10;;;26.30;94.00;;;;;;4880480;29;20029;-83
2021/08/31 10:45:25;;;;;;;6.70;3.13;;;26.20;93.90;;;;;;4879814;29;20021;-83
2021/08/31 10:47:52;;;;;;;7.15;3.17;;;26.00;93.20;;;;;;4863021;29;20033;-83
2021/08/31 10:50:26;;;;;;;7.30;3.10;;;25.70;93.60;;;;;;4863137;29;20029;-83
2021/08/31 10:52:56;;;;;;;6.40;3.00;;;25.50;93.10;;;;;;4879847;29;20029;-83
2021/08/31 10:55:24;;;;;;;6.78;3.20;;;25.60;94.50;;;;;;4847607;29;20052;-83
2021/08/31 10:57:57;;;;;;;6.35;3.05;;;25.80;95.60;;;;;;4864990;29;20062;-83
2021/08/31 11:00:25;;;;;;;6.53;3.05;;;25.90;94.50;;;;;;4864963;29;20032;-83
2021/08/31 11:02:57;;;;;;;8.13;3.35;;;26.20;94.20;;;;;;4864802;29;20054;-83
2021/08/31 11:05:27;;;;;;;7.38;3.40;;;26.20;94.20;;;;;;4865101;29;20026;-83
2021/08/31 11:08:02;;;;;;;7.63;3.22;;;26.90;94.00;;;;;;4872724;29;20040;-87
2021/08/31 11:10:32;;;;;;;7.10;3.35;;;26.40;93.10;;;;;;4873604;29;20578;-83
2021/08/31 11:13:24;;;;;;;8.23;3.20;;;26.10;92.80;;;;;;4856256;29;20030;-84
2021/08/31 11:15:56;;;;;;;6.10;3.03;;;26.20;94.00;;;;;;4874943;29;20174;-88
2021/08/31 11:18:25;;;;;;;7.45;3.03;;;25.60;93.60;;;;;;4878120;29;20033;-88
2021/08/31 11:20:51;;;;;;;7.95;3.20;;;25.10;94.20;;;;;;4868109;29;20029;-86
2021/08/31 11:23:22;;;;;;;6.95;3.28;;;25.00;94.00;;;;;;4866725;29;20033;-86
2021/08/31 11:25:50;;;;;;;6.75;2.90;;;25.40;94.20;;;;;;4866757;29;20037;-87
2021/08/31 11:28:29;;;;;;;7.35;3.20;;;25.00;94.50;;;;;;4885421;29;20615;-84
2021/08/31 11:31:05;;;;;;;6.75;3.30;;;24.70;94.90;;;;;;4847763;29;20040;-84
2021/08/31 11:33:31;;;;;;;7.72;3.70;;;24.30;94.60;;;;;;4847789;29;20071;-85
2021/08/31 11:35:59;;;;;;;7.15;3.50;;;25.40;95.50;;;;;;4865997;29;20138;-84
2021/08/31 11:38:42;;;;;;;7.50;3.30;;;24.80;95.70;;;;;;4883148;29;20478;-84
2021/08/31 11:41:21;;;;;;;5.93;2.95;;;25.20;95.30;;;;;;4883130;29;20082;-85
2021/08/31 11:44:03;;;;;;;6.70;3.22;;;25.90;95.50;;;;;;4883077;29;20029;-84
2021/08/31 11:46:31;;;;;;;6.68;3.22;;;27.00;94.80;;;;;;4882691;29;20040;-84
2021/08/31 11:49:15;;;;;;;6.15;2.90;;;27.20;94.40;;;;;;4865843;29;20512;-85
2021/08/31 11:52:18;;;;;;;6.78;2.80;;;27.60;94.10;;;;;;4882516;29;20057;-85
2021/08/31 11:54:55;;;;;;;6.43;2.80;;;26.60;93.50;;;;;;4866494;29;20040;-85
2021/08/31 11:57:29;;;;;;;6.07;2.88;;;27.80;93.10;;;;;;4865489;29;20037;-85
2021/08/31 11:59:54;;;;;;;6.55;3.08;;;27.90;93.30;;;;;;4882487;29;20484;-85
2021/08/31 12:02:29;;;;;;;7.60;3.15;;;28.40;93.00;;;;;;4865629;29;20061;-85
2021/08/31 12:04:54;;;;;;;5.35;2.70;;;28.00;91.90;;;;;;4865497;29;20132;-85
2021/08/31 12:07:29;;;;;;;5.97;2.92;;;27.70;92.20;;;;;;4881678;29;20533;-84
2021/08/31 12:10:00;;;;;;;9.18;3.17;;;28.10;92.10;;;;;;4881797;29;20033;-85
2021/08/31 12:12:27;;;;;;;5.35;2.75;;;28.40;92.30;;;;;;4882089;29;20056;-85
2021/08/31 12:14:53;;;;;;;4.82;2.70;;;28.70;92.20;;;;;;4865489;29;20029;-85
2021/08/31 12:17:46;;;;;;;5.93;3.08;;;29.40;92.50;;;;;;4880746;29;20131;-85
2021/08/31 12:20:15;;;;;;;6.63;3.30;;;30.20;91.30;;;;;;4865031;29;20064;-85
2021/08/31 12:22:45;;;;;;;8.48;3.10;;;30.80;90.20;;;;;;4881929;29;20029;-85
2021/08/31 12:25:14;;;;;;;6.07;3.10;;;30.80;90.00;;;;;;4865289;29;20384;-85
2021/08/31 12:27:45;;;;;;;6.25;3.00;;;31.10;91.10;;;;;;4881885;29;20442;-85
2021/08/31 12:30:32;;;;;;;6.30;3.00;;;30.70;89.50;;;;;;4881898;29;20031;-85
2021/08/31 12:32:58;;;;;;;6.70;3.17;;;30.30;89.00;;;;;;4864849;29;20455;-85
2021/08/31 12:35:41;;;;;;;6.78;2.92;;;30.30;90.60;;;;;;4864933;29;20037;-85
2021/08/31 12:38:20;;;;;;;6.57;3.10;;;30.00;91.20;;;;;;4863623;29;20029;-85
2021/08/31 12:40:56;;;;;;;8.45;3.00;;;30.20;90.30;;;;;;4847392;29;20032;-86
2021/08/31 12:43:28;;;;;;;6.18;2.97;;;30.80;90.20;;;;;;4867611;29;20112;-85
2021/08/31 12:45:56;;;;;;;6.57;2.90;;;30.60;90.90;;;;;;4854176;29;20108;-85
2021/08/31 12:48:40;;;;;;;6.10;2.92;;;30.30;90.40;;;;;;4869591;29;20081;-85
2021/08/31 12:51:06;;;;;;;5.53;2.70;;;30.20;89.90;;;;;;4847916;29;20441;-85
2021/08/31 12:53:38;;;;;;;5.47;2.90;;;29.90;90.60;;;;;;4846783;29;20793;-85
2021/08/31 12:56:06;;;;;;;7.13;3.30;;;29.50;90.90;;;;;;4846335;29;20482;-85
2021/08/31 12:58:37;;;;;;;7.00;3.13;;;28.80;91.20;;;;;;4846028;29;20551;-85
2021/08/31 13:01:03;;;;;;;5.30;2.67;;;28.50;92.00;;;;;;4845866;29;20107;-85
2021/08/31 13:03:30;;;;;;;5.05;3.00;;;28.90;92.20;;;;;;4862723;29;20049;-85
2021/08/31 13:05:56;;;;;;;6.22;2.95;;;28.50;91.30;;;;;;4846123;29;20435;-85
2021/08/31 13:08:22;;;;;;;6.65;3.15;;;29.20;90.20;;;;;;4861461;29;20041;-85
2021/08/31 13:10:47;;;;;;;5.70;2.75;;;28.90;89.20;;;;;;4879807;29;20381;-85
2021/08/31 13:13:13;;;;;;;5.78;2.92;;;29.60;90.00;;;;;;4879984;29;20046;-85
2021/08/31 13:15:39;;;;;;;5.82;2.85;;;29.30;87.90;;;;;;4864116;29;20105;-85
2021/08/31 13:18:04;;;;;;;7.30;2.97;;;29.30;88.20;;;;;;4863601;29;20037;-85
2021/08/31 13:20:30;;;;;;;6.97;3.28;;;29.50;88.60;;;;;;4880750;29;20021;-85
2021/08/31 13:22:55;;;;;;;5.88;3.08;;;30.20;86.30;;;;;;4880771;29;20035;-85
2021/08/31 13:25:23;;;;;;;7.85;2.85;;;31.40;90.20;;;;;;4864261;29;20504;-85
2021/08/31 13:27:49;;;;;;;5.85;3.00;;;33.00;84.90;;;;;;4864153;29;20112;-85
2021/08/31 13:30:15;;;;;;;6.35;3.03;;;33.80;83.30;;;;;;4848515;29;20120;-85
2021/08/31 13:32:40;;;;;;;4.95;2.40;;;33.90;84.60;;;;;;4864256;29;20512;-85
2021/08/31 13:35:06;;;;;;;5.60;2.70;;;33.40;83.30;;;;;;4879325;29;20029;-85
2021/08/31 13:37:32;;;;;;;4.88;2.40;;;33.10;83.40;;;;;;4849963;29;20462;-85
2021/08/31 13:39:58;;;;;;;5.45;2.70;;;32.80;82.70;;;;;;4845731;29;20068;-85
2021/08/31 13:42:23;;;;;;;7.93;3.10;;;32.50;82.60;;;;;;4845076;29;20041;-85
2021/08/31 13:44:50;;;;;;;5.75;2.60;;;32.50;78.40;;;;;;4860499;29;20017;-85
2021/08/31 13:47:16;;;;;;;5.80;2.85;;;32.30;79.70;;;;;;4830746;29;20397;-85
2021/08/31 13:49:41;;;;;;;6.72;2.60;;;32.10;81.80;;;;;;4845295;29;20033;-85
2021/08/31 13:52:07;;;;;;;5.60;3.00;;;31.90;82.20;;;;;;4844133;29;20071;-87
2021/08/31 13:54:33;;;;;;;6.70;2.80;;;32.80;82.50;;;;;;4894166;29;20021;-85
2021/08/31 13:56:59;;;;;;;6.70;2.80;;;31.60;80.20;;;;;;4864523;29;20104;-85
2021/08/31 13:59:24;;;;;;;6.97;3.00;;;31.20;81.80;;;;;;4860876;29;20029;-84
2021/08/31 14:01:50;;;;;;;8.40;2.90;;;31.10;81.40;;;;;;4886584;29;20057;-85
2021/08/31 14:04:16;;;;;;;7.72;2.92;;;32.50;89.80;;;;;;4884147;29;20426;-85
2021/08/31 14:06:42;;;;;;;5.53;2.72;;;33.20;85.20;;;;;;4871369;29;20425;-85
2021/08/31 14:09:14;;;;;;;5.57;2.80;;;33.50;77.40;;;;;;4875266;29;20066;-91
2021/08/31 14:11:41;;;;;;;6.65;2.70;;;33.50;73.60;;;;;;4881459;29;20425;-90
2021/08/31 14:14:07;;;;;;;6.03;2.60;;;33.70;75.70;;;;;;4864905;29;20029;-90
2021/08/31 14:16:33;;;;;;;4.95;2.58;;;33.90;76.50;;;;;;4849664;29;20383;-90
2021/08/31 14:19:00;;;;;;;5.25;2.65;;;33.60;75.80;;;;;;4880632;29;20108;-91
2021/08/31 14:21:26;;;;;;;5.32;2.60;;;33.80;75.00;;;;;;4894535;29;20039;-92
2021/08/31 14:23:53;;;;;;;5.53;2.60;;;33.30;75.50;;;;;;4880124;29;20088;-93
2021/08/31 14:26:22;;;;;;;6.72;2.72;;;33.30;73.60;;;;;;4863129;29;20033;-94
2021/08/31 14:28:52;;;;;;;5.60;2.90;;;33.20;73.30;;;;;;4875572;29;20025;-96
2021/08/31 14:31:18;;;;;;;5.78;3.03;;;32.60;73.60;;;;;;4846358;29;20094;-93
2021/08/31 14:33:51;;;;;;;5.32;2.67;;;32.90;76.10;;;;;;4866576;29;20021;-94
2021/08/31 14:36:17;;;;;;;9.35;3.00;;;35.30;79.60;;;;;;4894779;29;20055;-95
2021/08/31 14:38:43;;;;;;;5.40;2.78;;;35.00;74.20;;;;;;4848689;29;20037;-85
2021/08/31 14:41:11;;;;;;;5.65;2.72;;;34.80;72.70;;;;;;4861541;29;20029;-85
2021/08/31 14:43:37;;;;;;;5.78;2.60;;;33.80;72.70;;;;;;4878552;29;20493;-87
2021/08/31 14:46:05;;;;;;;6.72;2.80;;;32.70;72.70;;;;;;4879713;29;20079;-89
2021/08/31 14:48:33;;;;;;;7.10;3.00;;;32.20;74.80;;;;;;4863926;29;20084;-91
2021/08/31 14:50:59;;;;;;;5.68;2.72;;;31.40;77.90;;;;;;4863988;29;20025;-90
2021/08/31 14:53:31;;;;;;;6.28;3.00;;;31.40;77.70;;;;;;4882113;29;20059;-92
2021/08/31 14:55:57;;;;;;;5.82;2.80;;;31.60;76.70;;;;;;4880217;29;20041;-90
2021/08/31 14:58:27;;;;;;;4.47;2.63;;;30.50;75.10;;;;;;4864428;29;20124;-89
2021/08/31 15:00:53;;;;;;;6.90;3.10;;;30.20;76.60;;;;;;4848424;29;20371;-85
2021/08/31 15:03:19;;;;;;;5.53;2.95;;;29.10;77.90;;;;;;4877048;29;20036;-91
2021/08/31 15:05:44;;;;;;;5.93;2.95;;;28.60;79.40;;;;;;4852478;29;20394;-92
2021/08/31 15:08:10;;;;;;;4.53;2.55;;;28.40;80.40;;;;;;4881642;29;20037;-85
2021/08/31 15:10:36;;;;;;;7.85;3.35;;;27.90;81.10;;;;;;4879307;29;20082;-86
2021/08/31 15:13:05;;;;;;;6.25;3.00;;;27.90;81.60;;;;;;4878981;29;20734;-85
2021/08/31 15:15:30;;;;;;;6.75;3.20;;;28.20;84.70;;;;;;4862969;29;20381;-86
2021/08/31 15:17:57;;;;;;;6.95;3.40;;;27.80;84.80;;;;;;4879205;29;20033;-86
2021/08/31 15:20:25;;;;;;;7.35;3.22;;;27.30;85.40;;;;;;4862823;29;20033;-86
2021/08/31 15:22:51;;;;;;;6.38;3.20;;;27.20;84.70;;;;;;4879113;29;20384;-85
2021/08/31 15:25:19;;;;;;;5.53;2.65;;;27.90;87.50;;;;;;4879122;29;20385;-86
2021/08/31 15:27:47;;;;;;;7.53;3.10;;;27.30;84.90;;;;;;4878038;29;20446;-86
2021/08/31 15:30:13;;;;;;;5.75;2.90;;;26.80;84.10;;;;;;4879386;29;20033;-86
2021/08/31 15:32:39;;;;;;;5.25;2.70;;;26.60;85.40;;;;;;4879637;29;20037;-86
2021/08/31 15:35:07;;;;;;;7.90;3.00;;;25.60;89.20;;;;;;4860238;29;20034;-86
2021/08/31 15:37:33;;;;;;;6.60;3.10;;;26.30;84.70;;;;;;4857752;29;20039;-86
2021/08/31 15:40:09;;;;;;;6.38;3.08;;;26.80;87.00;;;;;;4860682;29;20108;-86
2021/08/31 15:42:34;;;;;;;5.97;2.90;;;26.00;88.40;;;;;;4862798;29;20553;-86
2021/08/31 15:45:00;;;;;;;6.85;2.97;;;26.40;90.00;;;;;;4859123;29;20120;-85
2021/08/31 15:47:25;;;;;;;6.78;3.15;;;25.60;90.10;;;;;;4839259;29;20033;-86
2021/08/31 15:49:54;;;;;;;6.50;3.10;;;25.90;91.30;;;;;;4878523;29;20029;-86
2021/08/31 15:52:19;;;;;;;7.05;3.17;;;25.30;91.10;;;;;;4890955;29;20069;-88
2021/08/31 15:54:45;;;;;;;6.60;3.10;;;25.80;92.80;;;;;;4881217;29;20228;-87
2021/08/31 15:57:12;;;;;;;6.82;3.30;;;25.40;87.40;;;;;;4853165;29;20044;-88
2021/08/31 15:59:44;;;;;;;6.85;3.13;;;25.30;87.00;;;;;;4866976;29;20032;-87
2021/08/31 16:02:20;;;;;;;6.35;3.15;;;24.70;89.50;;;;;;4866111;29;20132;-88
2021/08/31 16:04:47;;;;;;;7.07;3.13;;;25.70;91.20;;;;;;4866240;29;20056;-88
2021/08/31 16:07:13;;;;;;;7.22;3.50;;;24.20;91.00;;;;;;4879818;29;20044;-87
2021/08/31 16:09:39;;;;;;;7.53;3.13;;;24.20;93.10;;;;;;4874634;29;20028;-87
2021/08/31 16:12:05;;;;;;;7.30;3.35;;;23.60;78.50;;;;;;4866052;29;20377;-86
2021/08/31 16:14:37;;;;;;;6.10;2.92;;;23.60;81.00;;;;;;4882523;29;20044;-87
2021/08/31 16:17:03;;;;;;;7.55;3.53;;;23.30;79.50;;;;;;4865906;29;20041;-87
2021/08/31 16:19:32;;;;;;;8.20;3.55;;;22.90;81.30;;;;;;4865936;29;20101;-88
2021/08/31 16:21:58;;;;;;;7.97;3.38;;;23.50;83.00;;;;;;4850036;29;20035;-88
2021/08/31 16:24:24;;;;;;;7.40;3.60;;;23.70;88.80;;;;;;4850775;29;20029;-88
2021/08/31 16:27:09;;;;;;;7.15;3.50;;;23.40;83.40;;;;;;4878058;29;20052;-88
2021/08/31 16:29:35;;;;;;;7.47;3.85;;;23.40;84.10;;;;;;4865209;29;20037;-88
2021/08/31 16:32:01;;;;;;;8.10;3.80;;;25.70;87.30;;;;;;4881189;29;20059;-91
2021/08/31 16:34:27;;;;;;;10.00;3.78;;;24.20;89.60;;;;;;4861739;29;20041;-87
2021/08/31 16:36:56;;;;;;;7.70;3.97;;;24.20;85.70;;;;;;4857584;29;20044;-88
2021/08/31 16:39:21;;;;;;;7.32;3.80;;;24.80;83.90;;;;;;4852088;29;20033;-88
2021/08/31 16:41:51;;;;;;;9.10;3.72;;;24.20;83.00;;;;;;4850264;29;20156;-89
2021/08/31 16:44:18;;;;;;;10.18;3.85;;;26.50;82.80;;;;;;4880256;29;20060;-92
2021/08/31 16:46:44;;;;;;;7.97;3.90;;;25.30;83.20;;;;;;4863818;29;20021;-87
2021/08/31 16:49:09;;;;;;;8.20;3.92;;;25.10;84.70;;;;;;4862510;29;20040;-87
2021/08/31 16:51:35;;;;;;;8.13;3.47;;;24.30;84.90;;;;;;4862007;29;20051;-87
2021/08/31 16:54:04;;;;;;;7.00;3.70;;;23.70;90.40;;;;;;4863186;29;20162;-87
2021/08/31 16:56:45;;;;;;;7.72;3.65;;;24.30;86.40;;;;;;4879410;29;20100;-86
2021/08/31 16:59:11;;;;;;;6.90;3.28;;;23.20;80.90;;;;;;4850752;29;20504;-87
2021/08/31 17:01:37;;;;;;;7.60;3.40;;;23.80;83.50;;;;;;4849107;29;20087;-86
2021/08/31 17:04:14;;;;;;;8.00;3.55;;;23.30;82.50;;;;;;4864927;29;20113;-90
2021/08/31 17:06:40;;;;;;;10.05;4.10;;;23.30;84.20;;;;;;4846332;29;20174;-88
2021/08/31 17:09:06;;;;;;;8.55;3.50;;;24.60;84.60;;;;;;4835344;29;20123;-85
2021/08/31 17:11:34;;;;;;;7.60;3.80;;;23.50;86.30;;;;;;4864043;29;20437;-87
2021/08/31 17:13:59;;;;;;;7.00;3.55;;;23.70;86.60;;;;;;4846791;29;20041;-87
2021/08/31 17:16:26;;;;;;;8.30;4.00;;;24.10;86.20;;;;;;4863278;29;20042;-88
2021/08/31 17:18:52;;;;;;;8.23;3.67;;;25.60;85.00;;;;;;4861787;29;20045;-89
2021/08/31 17:21:17;;;;;;;7.82;3.70;;;24.50;87.40;;;;;;4846735;29;20467;-88
2021/08/31 17:23:44;;;;;;;8.02;3.60;;;23.20;84.70;;;;;;4862820;29;20074;-88
2021/08/31 17:26:11;;;;;;;8.80;4.22;;;;;;;;;;4846293;29;20030;-85
2021/08/31 17:28:37;;;;;;;10.20;4.30;;;22.60;82.30;;;;;;4845526;29;20032;-86
2021/08/31 17:31:03;;;;;;;9.32;4.28;;;22.70;88.90;;;;;;4845695;29;20038;-85
2021/08/31 17:33:29;;;;;;;8.50;4.05;;;24.60;92.90;;;;;;4845509;29;20124;-82
2021/08/31 17:35:55;;;;;;;10.65;3.90;;;23.30;93.40;;;;;;4831726;29;20066;-80
2021/08/31 17:38:22;;;;;;;8.95;4.43;;;23.40;94.20;;;;;;4885503;29;20028;-89
2021/08/31 17:40:50;;;;;;;8.80;3.85;;;21.70;88.40;;;;;;4873364;29;20061;-92
2021/08/31 17:43:15;;;;;;;7.63;3.97;;;23.50;91.40;;;;;;4869405;29;20025;-93
2021/08/31 17:45:41;;;;;;;8.05;4.10;;;22.40;90.50;;;;;;4866667;29;20069;-91
2021/08/31 17:48:11;;;;;;;8.10;4.03;;;22.30;90.20;;;;;;4850837;29;20382;-93
2021/08/31 17:50:39;;;;;;;8.25;4.18;;;22.20;91.30;;;;;;4851024;29;20033;-91
2021/08/31 17:53:06;;;;;;;9.93;4.22;;;22.10;91.40;;;;;;4880745;29;20132;-93